createdAt,value
2019-01-03T00:00:20.326Z,3.73
2019-01-03T00:02:53.556Z,4.70
2019-01-03T00:05:34.937Z,4.73
2019-01-03T00:08:16.050Z,3.57
2019-01-03T00:10:55.308Z,4.07
2019-01-03T00:13:39.608Z,4.00
2019-01-03T00:19:21.002Z,4.00
2019-01-03T00:21:59.464Z,3.47
2019-01-03T00:24:32.803Z,4.67
2019-01-03T00:27:19.372Z,4.77
2019-01-03T00:30:03.570Z,4.73
2019-01-03T00:32:37.702Z,5.20
2019-01-03T00:35:13.243Z,3.03
2019-01-03T00:37:49.398Z,3.17
2019-01-03T00:40:27.483Z,3.73
2019-01-03T00:43:00.739Z,4.33
2019-01-03T00:45:43.923Z,6.03
2019-01-03T00:48:32.138Z,4.50
2019-01-03T00:51:08.186Z,5.63
2019-01-03T00:53:44.914Z,5.23
2019-01-03T00:56:28.747Z,5.10
2019-01-03T00:58:57.942Z,4.47
2019-01-03T01:01:27.015Z,5.13
2019-01-03T01:04:12.756Z,5.10
2019-01-03T01:06:53.986Z,4.30
2019-01-03T01:09:40.660Z,2.50
2019-01-03T01:12:18.408Z,2.67
2019-01-03T01:15:03.656Z,2.90
2019-01-03T01:17:36.982Z,3.30
2019-01-03T01:20:06.920Z,3.47
2019-01-03T01:22:35.972Z,3.43
2019-01-03T01:25:22.180Z,2.87
2019-01-03T01:28:00.372Z,3.70
2019-01-03T01:30:29.527Z,3.30
2019-01-03T01:33:15.718Z,3.30
2019-01-03T01:35:44.834Z,2.73
2019-01-03T01:38:13.893Z,3.53
2019-01-03T01:40:43.000Z,3.93
2019-01-03T01:43:27.271Z,2.10
2019-01-03T01:45:58.794Z,1.60
2019-01-03T01:48:34.503Z,2.17
2019-01-03T01:51:03.576Z,1.50
2019-01-03T01:53:32.596Z,2.10
2019-01-03T01:56:18.151Z,2.37
2019-01-03T01:58:47.144Z,1.40
2019-01-03T02:01:32.998Z,1.77
2019-01-03T02:04:14.343Z,2.20
2019-01-03T02:06:49.517Z,1.83
2019-01-03T02:09:18.557Z,1.37
2019-01-03T02:11:54.767Z,1.30
2019-01-03T02:14:44.198Z,1.67
2019-01-03T02:17:29.660Z,1.87
2019-01-03T02:20:01.854Z,1.60
2019-01-03T02:22:34.563Z,3.57
2019-01-03T02:25:15.625Z,1.63
2019-01-03T02:27:57.002Z,1.73
2019-01-03T02:30:35.157Z,2.53
2019-01-03T02:33:06.832Z,1.80
2019-01-03T02:35:35.956Z,2.57
2019-01-03T02:38:21.118Z,2.60
2019-01-03T02:40:50.114Z,1.90
2019-01-03T02:43:24.732Z,2.17
2019-01-03T02:45:55.324Z,2.30
2019-01-03T02:48:42.580Z,3.03
2019-01-03T02:51:11.630Z,3.03
2019-01-03T02:53:40.632Z,4.63
2019-01-03T02:56:15.723Z,3.97
2019-01-03T02:58:56.439Z,2.73
2019-01-03T03:01:25.672Z,3.00
2019-01-03T03:04:08.580Z,3.60
2019-01-03T03:06:49.316Z,3.17
2019-01-03T03:09:18.963Z,3.10
2019-01-03T03:12:06.654Z,3.23
2019-01-03T03:14:35.758Z,3.03
2019-01-03T03:17:07.961Z,3.00
2019-01-03T03:19:37.001Z,2.90
2019-01-03T03:22:11.791Z,2.70
2019-01-03T03:24:46.385Z,2.80
2019-01-03T03:27:18.467Z,2.97
2019-01-03T03:29:47.654Z,2.43
2019-01-03T03:32:33.372Z,1.50
2019-01-03T03:35:20.474Z,2.37
2019-01-03T03:37:58.590Z,3.67
2019-01-03T03:40:27.641Z,2.33
2019-01-03T03:43:05.324Z,4.20
2019-01-03T03:45:34.372Z,2.30
2019-01-03T03:48:03.351Z,2.97
2019-01-03T03:50:35.233Z,3.60
2019-01-03T03:53:06.903Z,3.50
2019-01-03T03:55:36.067Z,2.60
2019-01-03T03:58:19.992Z,2.00
2019-01-03T04:01:06.511Z,2.00
2019-01-03T04:03:47.891Z,2.17
2019-01-03T04:06:33.362Z,1.90
2019-01-03T04:09:02.538Z,3.73
2019-01-03T04:11:34.531Z,2.50
2019-01-03T04:14:20.122Z,3.33
2019-01-03T04:16:54.943Z,1.67
2019-01-03T04:19:36.314Z,3.43
2019-01-03T04:22:14.623Z,4.10
2019-01-03T04:25:02.715Z,3.73
2019-01-03T04:27:34.769Z,6.57
2019-01-03T04:30:15.856Z,3.10
2019-01-03T04:32:47.901Z,4.07
2019-01-03T04:35:17.084Z,4.40
2019-01-03T04:37:54.786Z,4.33
2019-01-03T04:40:23.806Z,4.27
2019-01-03T04:42:59.137Z,2.33
2019-01-03T04:45:44.528Z,2.20
2019-01-03T04:48:22.731Z,7.63
2019-01-03T04:50:54.551Z,5.93
2019-01-03T04:53:41.715Z,6.70
2019-01-03T04:56:13.786Z,5.60
2019-01-03T04:58:42.871Z,8.47
2019-01-03T05:01:30.479Z,7.70
2019-01-03T05:03:59.500Z,7.63
2019-01-03T05:06:43.675Z,7.90
2019-01-03T05:09:12.705Z,7.33
2019-01-03T05:11:44.439Z,8.60
2019-01-03T05:14:13.382Z,5.93
2019-01-03T05:16:48.266Z,5.27
2019-01-03T05:19:35.401Z,6.13
2019-01-03T05:22:07.035Z,4.73
2019-01-03T05:24:41.788Z,7.03
2019-01-03T05:27:10.830Z,7.43
2019-01-03T05:29:42.823Z,4.87
2019-01-03T05:32:28.226Z,5.20
2019-01-03T05:34:59.742Z,4.63
2019-01-03T05:37:45.558Z,3.43
2019-01-03T05:40:14.707Z,3.83
2019-01-03T05:42:59.085Z,4.87
2019-01-03T05:45:34.300Z,3.10
2019-01-03T05:48:21.602Z,5.13
2019-01-03T05:50:59.759Z,5.00
2019-01-03T05:53:34.571Z,3.27
2019-01-03T05:56:20.203Z,3.17
2019-01-03T05:58:49.335Z,2.80
2019-01-03T06:01:21.164Z,2.57
2019-01-03T06:03:54.435Z,3.67
2019-01-03T06:06:40.170Z,7.13
2019-01-03T06:09:25.836Z,5.87
2019-01-03T06:12:00.573Z,3.27
2019-01-03T06:14:45.954Z,2.33
2019-01-03T06:17:14.969Z,3.23
2019-01-03T06:19:44.074Z,5.10
2019-01-03T06:22:22.247Z,6.60
2019-01-03T06:25:07.695Z,10.23
2019-01-03T06:27:39.854Z,6.13
2019-01-03T06:30:17.868Z,2.87
2019-01-03T06:33:03.190Z,5.73
2019-01-03T06:35:48.607Z,3.73
2019-01-03T06:38:24.004Z,4.93
2019-01-03T06:41:11.022Z,5.93
2019-01-03T06:43:44.714Z,3.17
2019-01-03T06:46:31.623Z,3.00
2019-01-03T06:49:00.764Z,2.53
2019-01-03T06:51:29.816Z,2.73
2019-01-03T06:54:10.706Z,3.07
2019-01-03T06:56:40.264Z,4.47
2019-01-03T06:59:12.002Z,3.67
2019-01-03T07:01:47.243Z,3.90
2019-01-03T07:04:34.582Z,2.47
2019-01-03T07:07:06.172Z,4.97
2019-01-03T07:09:50.554Z,4.27
2019-01-03T07:12:38.008Z,3.17
2019-01-03T07:15:07.072Z,3.50
2019-01-03T07:17:36.121Z,3.03
2019-01-03T07:20:05.243Z,4.43
2019-01-03T07:22:38.291Z,2.70
2019-01-03T07:25:13.628Z,3.80
2019-01-03T07:27:59.050Z,5.40
2019-01-03T07:30:40.288Z,7.90
2019-01-03T07:33:25.592Z,4.83
2019-01-03T07:36:10.628Z,7.33
2019-01-03T07:38:42.456Z,5.03
2019-01-03T07:41:14.572Z,5.97
2019-01-03T07:43:46.505Z,6.10
2019-01-03T07:46:21.788Z,5.93
2019-01-03T07:49:10.110Z,7.93
2019-01-03T07:51:44.941Z,8.97
2019-01-03T07:54:16.915Z,8.30
2019-01-03T07:57:08.432Z,9.33
2019-01-03T07:59:40.713Z,9.17
2019-01-03T08:02:15.283Z,11.60
2019-01-03T08:05:00.186Z,12.87
2019-01-03T08:07:33.459Z,14.47
2019-01-03T08:10:07.280Z,14.37
2019-01-03T08:12:38.833Z,10.03
2019-01-03T08:15:10.228Z,12.27
2019-01-03T08:17:38.789Z,12.33
2019-01-03T08:20:16.164Z,9.00
2019-01-03T08:23:01.614Z,9.33
2019-01-03T08:25:47.242Z,7.03
2019-01-03T08:28:23.591Z,9.80
2019-01-03T08:30:58.771Z,11.77
2019-01-03T08:33:39.471Z,13.43
2019-01-03T08:36:15.786Z,11.67
2019-01-03T08:39:02.266Z,13.57
2019-01-03T08:41:45.052Z,13.30
2019-01-03T08:44:16.829Z,10.87
2019-01-03T08:47:02.530Z,10.67
2019-01-03T08:49:48.428Z,9.53
2019-01-03T08:52:26.603Z,11.00
2019-01-03T08:55:04.505Z,7.97
2019-01-03T08:57:41.892Z,7.70
2019-01-03T09:00:20.092Z,8.27
2019-01-03T09:03:05.683Z,9.63
2019-01-03T09:05:46.964Z,10.97
2019-01-03T09:08:32.652Z,11.03
2019-01-03T09:11:01.959Z,11.40
2019-01-03T09:13:37.298Z,10.87
2019-01-03T09:16:15.331Z,9.83
2019-01-03T09:19:17.775Z,10.73
2019-01-03T09:21:50.260Z,13.27
2019-01-03T09:24:35.727Z,11.03
2019-01-03T09:27:22.179Z,9.10
2019-01-03T09:29:52.768Z,6.43
2019-01-03T09:32:22.871Z,10.13
2019-01-03T09:34:57.817Z,9.00
2019-01-03T09:37:43.120Z,10.87
2019-01-03T09:40:15.352Z,9.97
2019-01-03T09:43:00.558Z,9.80
2019-01-03T09:45:29.108Z,9.97
2019-01-03T09:47:56.572Z,8.77
2019-01-03T09:50:25.241Z,11.93
2019-01-03T09:52:52.753Z,9.30
2019-01-03T09:55:20.153Z,8.10
2019-01-03T09:57:47.714Z,13.17
2019-01-03T10:00:15.309Z,12.13
2019-01-03T10:02:45.439Z,16.67
2019-01-03T10:05:13.031Z,14.77
2019-01-03T10:07:41.696Z,10.77
2019-01-03T10:10:09.236Z,18.03
2019-01-03T10:12:36.707Z,21.50
2019-01-03T10:15:04.459Z,15.87
2019-01-03T10:17:32.101Z,14.93
2019-01-03T10:19:59.676Z,14.07
2019-01-03T10:22:27.209Z,16.50
2019-01-03T10:24:56.114Z,18.70
2019-01-03T10:27:26.874Z,18.40
2019-01-03T10:29:55.021Z,15.00
2019-01-03T10:32:22.480Z,17.77
2019-01-03T10:34:49.950Z,13.40
2019-01-03T10:37:18.572Z,17.73
2019-01-03T10:39:45.997Z,25.33
2019-01-03T10:42:13.515Z,20.13
2019-01-03T10:44:41.055Z,17.53
2019-01-03T10:47:13.945Z,21.30
2019-01-03T10:49:41.433Z,16.77
2019-01-03T10:52:08.877Z,18.43
2019-01-03T10:54:36.310Z,14.20
2019-01-03T10:57:03.833Z,15.73
2019-01-03T10:59:35.851Z,11.87
2019-01-03T11:02:03.422Z,10.07
2019-01-03T11:04:32.335Z,14.70
2019-01-03T11:06:59.965Z,8.60
2019-01-03T11:09:27.536Z,11.90
2019-01-03T11:11:57.697Z,14.67
2019-01-03T11:14:26.528Z,6.93
2019-01-03T11:16:54.045Z,8.47
2019-01-03T11:19:21.673Z,9.40
2019-01-03T11:21:49.213Z,10.40
2019-01-03T11:24:16.664Z,7.47
2019-01-03T11:26:44.210Z,9.90
2019-01-03T11:29:11.844Z,11.97
2019-01-03T11:31:39.320Z,11.07
2019-01-03T11:34:08.422Z,10.50
2019-01-03T11:36:35.981Z,6.37
2019-01-03T11:39:04.567Z,6.63
2019-01-03T11:41:33.791Z,10.43
2019-01-03T11:44:05.567Z,11.40
2019-01-03T11:46:32.950Z,11.80
2019-01-03T11:49:02.959Z,10.37
2019-01-03T11:51:30.577Z,11.37
2019-01-03T11:53:58.063Z,8.73
2019-01-03T11:56:27.309Z,10.20
2019-01-03T11:58:56.223Z,10.97
2019-01-03T12:01:25.322Z,9.67
2019-01-03T12:03:52.878Z,11.87
2019-01-03T12:06:20.456Z,8.17
2019-01-03T12:08:50.994Z,8.93
2019-01-03T12:11:18.485Z,9.70
2019-01-03T12:13:47.973Z,7.90
2019-01-03T12:16:17.543Z,10.20
2019-01-03T12:18:46.805Z,9.10
2019-01-03T12:21:14.443Z,10.07
2019-01-03T12:23:42.016Z,9.27
2019-01-03T12:26:13.274Z,9.38
2019-01-03T12:28:40.343Z,9.00
2019-01-03T12:31:07.875Z,10.20
2019-01-03T12:33:35.417Z,10.23
2019-01-03T12:36:08.812Z,8.47
2019-01-03T12:38:36.354Z,8.20
2019-01-03T12:41:03.777Z,11.20
2019-01-03T12:43:31.919Z,9.50
2019-01-03T12:45:59.411Z,9.53
2019-01-03T12:48:28.072Z,11.87
2019-01-03T12:50:55.693Z,12.00
2019-01-03T12:53:24.777Z,11.23
2019-01-03T12:55:52.312Z,10.17
2019-01-03T12:58:20.313Z,11.43
2019-01-03T13:00:47.747Z,12.13
2019-01-03T13:03:18.005Z,12.80
2019-01-03T13:05:45.687Z,11.13
2019-01-03T13:08:13.243Z,11.63
2019-01-03T13:10:40.782Z,12.47
2019-01-03T13:13:10.019Z,8.90
2019-01-03T13:15:37.499Z,9.30
2019-01-03T13:18:08.239Z,10.53
2019-01-03T13:20:37.450Z,7.70
2019-01-03T13:23:04.911Z,8.07
2019-01-03T13:25:35.920Z,8.67
2019-01-03T13:28:03.036Z,8.90
2019-01-03T13:30:32.217Z,8.53
2019-01-03T13:32:59.763Z,8.17
2019-01-03T13:35:29.477Z,10.53
2019-01-03T13:37:56.935Z,10.40
2019-01-03T13:40:25.853Z,13.33
2019-01-03T13:42:53.312Z,10.40
2019-01-03T13:45:21.213Z,15.33
2019-01-03T13:47:48.711Z,15.80
2019-01-03T13:50:17.760Z,11.97
2019-01-03T13:52:45.275Z,9.57
2019-01-03T13:55:12.740Z,10.93
2019-01-03T13:57:42.361Z,10.97
2019-01-03T14:00:10.016Z,13.37
2019-01-03T14:02:37.533Z,15.03
2019-01-03T14:05:05.414Z,14.73
2019-01-03T14:07:32.792Z,11.77
2019-01-03T14:10:00.290Z,12.07
2019-01-03T14:12:28.894Z,16.23
2019-01-03T14:14:56.246Z,22.47
2019-01-03T14:17:23.676Z,27.17
2019-01-03T14:19:51.160Z,18.67
2019-01-03T14:22:18.568Z,16.30
2019-01-03T14:24:46.093Z,14.80
2019-01-03T14:27:13.516Z,14.80
2019-01-03T14:29:41.038Z,10.80
2019-01-03T14:32:08.450Z,10.07
2019-01-03T14:34:37.574Z,13.70
2019-01-03T14:37:05.106Z,9.60
2019-01-03T14:39:33.596Z,11.30
2019-01-03T14:42:03.564Z,8.60
2019-01-03T14:44:31.107Z,8.10
2019-01-03T14:46:58.455Z,9.17
2019-01-03T14:49:26.050Z,7.73
2019-01-03T14:51:53.432Z,10.93
2019-01-03T14:54:20.901Z,9.50
2019-01-03T14:56:52.676Z,10.90
2019-01-03T14:59:20.174Z,9.73
2019-01-03T15:01:49.168Z,13.43
2019-01-03T15:04:16.587Z,10.90
2019-01-03T15:06:44.026Z,15.47
2019-01-03T15:09:11.473Z,17.30
2019-01-03T15:11:40.076Z,12.50
2019-01-03T15:14:07.518Z,13.23
2019-01-03T15:16:34.910Z,12.83
2019-01-03T15:19:02.373Z,14.47
2019-01-03T15:21:32.526Z,17.43
2019-01-03T15:23:59.955Z,17.30
2019-01-03T15:26:27.528Z,17.03
2019-01-03T15:28:57.751Z,17.20
2019-01-03T15:31:30.356Z,20.70
2019-01-03T15:33:57.851Z,17.63
2019-01-03T15:36:25.234Z,21.90
2019-01-03T15:38:53.812Z,15.33
2019-01-03T15:41:25.105Z,16.00
2019-01-03T15:43:53.785Z,17.57
2019-01-03T15:46:21.336Z,12.97
2019-01-03T15:48:49.352Z,12.40
2019-01-03T15:51:16.813Z,11.63
2019-01-03T15:53:44.325Z,7.33
2019-01-03T15:56:11.749Z,16.37
2019-01-03T15:58:39.214Z,15.23
2019-01-03T16:03:42.286Z,17.93
2019-01-03T16:06:38.508Z,21.73
2019-01-03T16:09:06.294Z,23.30
2019-01-03T16:11:34.237Z,20.60
2019-01-03T16:14:04.630Z,20.23
2019-01-03T16:16:32.371Z,20.70
2019-01-03T16:19:00.829Z,19.93
2019-01-03T16:21:28.299Z,19.53
2019-01-03T16:23:55.755Z,18.67
2019-01-03T16:26:23.169Z,12.80
2019-01-03T16:28:50.551Z,8.43
2019-01-03T16:31:19.787Z,9.27
2019-01-03T16:33:50.572Z,11.63
2019-01-03T16:36:18.302Z,13.20
2019-01-03T16:38:47.471Z,17.40
2019-01-03T16:41:14.912Z,27.53
2019-01-03T16:43:43.099Z,26.53
2019-01-03T16:46:10.662Z,21.63
2019-01-03T16:48:38.068Z,15.20
2019-01-03T16:51:05.521Z,13.80
2019-01-03T16:53:33.017Z,20.87
2019-01-03T16:56:00.505Z,27.53
2019-01-03T16:58:27.969Z,25.70
2019-01-03T17:00:55.532Z,27.57
2019-01-03T17:03:22.983Z,26.83
2019-01-03T17:05:50.401Z,30.67
2019-01-03T17:08:18.005Z,45.43
2019-01-03T17:10:45.409Z,37.43
2019-01-03T17:13:14.479Z,27.47
2019-01-03T17:15:43.613Z,27.63
2019-01-03T17:18:11.083Z,23.23
2019-01-03T17:20:38.516Z,29.53
2019-01-03T17:23:06.053Z,27.47
2019-01-03T17:25:33.513Z,24.53
2019-01-03T17:28:01.971Z,25.70
2019-01-03T17:30:29.586Z,23.00
2019-01-03T17:32:57.051Z,19.87
2019-01-03T17:35:24.509Z,25.03
2019-01-03T17:37:51.957Z,20.50
2019-01-03T17:40:19.373Z,27.40
2019-01-03T17:42:46.776Z,21.50
2019-01-03T17:45:15.863Z,18.80
2019-01-03T17:47:43.523Z,15.93
2019-01-03T17:50:11.361Z,14.53
2019-01-03T17:52:38.813Z,15.30
2019-01-03T17:55:06.949Z,16.47
2019-01-03T17:57:34.460Z,18.90
2019-01-03T18:00:02.048Z,19.80
2019-01-03T18:02:29.570Z,20.50
2019-01-03T18:04:57.126Z,23.03
2019-01-03T18:07:24.862Z,14.47
2019-01-03T18:09:52.334Z,22.33
2019-01-03T18:12:19.834Z,19.97
2019-01-03T18:14:47.348Z,23.53
2019-01-03T18:17:16.422Z,15.47
2019-01-03T18:19:43.826Z,20.73
2019-01-03T18:22:11.416Z,19.17
2019-01-03T18:24:38.902Z,22.87
2019-01-03T18:27:06.415Z,28.93
2019-01-03T18:29:34.018Z,26.87
2019-01-03T18:32:01.504Z,35.73
2019-01-03T18:34:29.003Z,36.37
2019-01-03T18:36:56.532Z,34.67
2019-01-03T18:39:23.958Z,36.57
2019-01-03T18:41:51.588Z,38.57
2019-01-03T18:44:19.033Z,35.13
2019-01-03T18:46:46.437Z,36.27
2019-01-03T18:49:13.866Z,41.03
2019-01-03T18:51:42.485Z,34.33
2019-01-03T18:54:11.953Z,35.03
2019-01-03T18:56:43.134Z,28.87
2019-01-03T18:59:09.374Z,46.60
2019-01-03T19:01:36.862Z,41.00
2019-01-03T19:04:04.371Z,48.53
2019-01-03T19:06:31.935Z,32.00
2019-01-03T19:08:59.701Z,36.10
2019-01-03T19:11:27.363Z,39.90
2019-01-03T19:13:54.953Z,28.13
2019-01-03T19:16:22.527Z,25.67
2019-01-03T19:18:50.040Z,21.60
2019-01-03T19:21:17.639Z,26.23
2019-01-03T19:23:46.795Z,20.83
2019-01-03T19:26:14.362Z,20.07
2019-01-03T19:28:42.261Z,21.50
2019-01-03T19:31:09.783Z,21.77
2019-01-03T19:33:37.343Z,18.73
2019-01-03T19:36:05.003Z,22.03
2019-01-03T19:38:33.889Z,19.13
2019-01-03T19:41:02.889Z,20.87
2019-01-03T19:43:30.448Z,23.03
2019-01-03T19:45:59.762Z,22.67
2019-01-03T19:48:27.874Z,20.23
2019-01-03T19:50:55.504Z,23.10
2019-01-03T19:53:22.937Z,34.53
2019-01-03T19:55:50.769Z,22.90
2019-01-03T19:58:18.380Z,24.23
2019-01-03T20:01:14.694Z,22.00
2019-01-03T20:04:21.006Z,18.77
2019-01-03T20:06:48.504Z,31.43
2019-01-03T20:09:17.505Z,40.77
2019-01-03T20:11:45.085Z,16.13
2019-01-03T20:14:12.550Z,21.43
2019-01-03T20:16:40.056Z,23.33
2019-01-03T20:19:07.529Z,23.53
2019-01-03T20:21:35.044Z,24.40
2019-01-03T20:24:02.465Z,18.97
2019-01-03T20:26:30.106Z,26.03
2019-01-03T20:28:57.566Z,25.27
2019-01-03T20:31:25.144Z,28.97
2019-01-03T20:33:53.933Z,24.90
2019-01-03T20:36:21.444Z,30.70
2019-01-03T20:38:48.859Z,30.87
2019-01-03T20:41:17.971Z,29.20
2019-01-03T20:43:45.587Z,32.40
2019-01-03T20:46:17.518Z,37.33
2019-01-03T20:48:45.125Z,28.10
2019-01-03T20:51:13.209Z,28.57
2019-01-03T20:53:40.756Z,41.17
2019-01-03T20:56:10.816Z,37.27
2019-01-03T20:58:39.421Z,30.97
2019-01-03T21:01:06.936Z,42.10
2019-01-03T21:03:34.892Z,29.47
2019-01-03T21:06:03.070Z,26.80
2019-01-03T21:08:30.623Z,24.60
2019-01-03T21:10:58.256Z,23.33
2019-01-03T21:13:26.335Z,20.87
2019-01-03T21:15:55.424Z,21.03
2019-01-03T21:18:23.780Z,19.30
2019-01-03T21:20:51.372Z,15.93
2019-01-03T21:23:20.555Z,19.77
2019-01-03T21:25:48.149Z,12.83
2019-01-03T21:28:18.649Z,9.17
2019-01-03T21:30:46.240Z,12.43
2019-01-03T21:33:13.830Z,9.87
2019-01-03T21:35:43.974Z,12.63
2019-01-03T21:38:13.193Z,12.67
2019-01-03T21:40:44.804Z,11.97
2019-01-03T21:43:14.087Z,13.40
2019-01-03T21:45:41.379Z,13.93
2019-01-03T21:48:10.010Z,14.87
2019-01-03T21:50:37.529Z,11.97
2019-01-03T21:53:05.028Z,18.20
2019-01-03T21:55:32.587Z,14.57
2019-01-03T21:58:00.182Z,14.13
2019-01-03T22:00:30.768Z,13.03
2019-01-03T22:02:58.993Z,12.93
2019-01-03T22:05:26.521Z,12.63
2019-01-03T22:07:55.589Z,16.63
2019-01-03T22:10:24.747Z,13.30
2019-01-03T22:12:52.181Z,12.40
2019-01-03T22:15:21.107Z,17.73
2019-01-03T22:17:48.536Z,15.40
2019-01-03T22:20:16.014Z,11.10
2019-01-03T22:22:44.028Z,12.13
2019-01-03T22:25:11.467Z,10.90
2019-01-03T22:27:38.976Z,11.30
2019-01-03T22:30:08.174Z,12.07
2019-01-03T22:32:36.272Z,8.67
2019-01-03T22:35:06.624Z,9.60
2019-01-03T22:37:36.841Z,10.63
2019-01-03T22:40:06.814Z,16.67
2019-01-03T22:42:34.711Z,12.57
2019-01-03T22:45:04.842Z,16.93
2019-01-03T22:47:36.970Z,14.87
2019-01-03T22:50:05.915Z,19.13
2019-01-03T22:52:36.117Z,16.13
2019-01-03T22:55:05.519Z,14.47
2019-01-03T22:57:33.142Z,18.00
2019-01-03T23:00:00.599Z,19.57
2019-01-03T23:02:28.162Z,18.23
2019-01-03T23:04:55.571Z,21.63
2019-01-03T23:07:24.618Z,19.00
2019-01-03T23:09:52.158Z,24.60
2019-01-03T23:12:19.659Z,21.70
2019-01-03T23:14:48.707Z,22.83
2019-01-03T23:17:20.589Z,19.10
2019-01-03T23:19:48.006Z,22.60
2019-01-03T23:22:15.391Z,20.17
2019-01-03T23:24:44.147Z,13.97
2019-01-03T23:27:11.588Z,20.27
2019-01-03T23:29:39.033Z,10.33
2019-01-03T23:32:07.110Z,12.07
2019-01-03T23:34:34.598Z,13.57
2019-01-03T23:37:06.872Z,13.57
2019-01-03T23:39:34.653Z,10.97
2019-01-03T23:42:02.220Z,14.33
2019-01-03T23:44:34.891Z,16.17
2019-01-03T23:47:03.777Z,16.47
2019-01-03T23:49:32.325Z,15.40
2019-01-03T23:52:01.028Z,13.23
2019-01-03T23:54:29.431Z,9.93
2019-01-03T23:56:56.988Z,11.67
2019-01-03T23:59:24.529Z,11.23
